createdAt,value
2022-11-14T00:00:01.383Z,49.17
2022-11-14T00:02:46.617Z,48.90
2022-11-14T00:05:32.055Z,48.77
2022-11-14T00:08:21.273Z,46.77
2022-11-14T00:11:06.616Z,46.70
2022-11-14T00:13:51.970Z,45.30
2022-11-14T00:16:37.414Z,43.30
2022-11-14T00:19:22.523Z,44.30
2022-11-14T00:22:07.810Z,42.30
2022-11-14T00:24:53.340Z,41.47
2022-11-14T00:27:38.736Z,41.13
2022-11-14T00:30:24.231Z,44.00
2022-11-14T00:33:09.596Z,39.10
2022-11-14T00:35:56.214Z,42.40
2022-11-14T00:38:41.601Z,39.03
2022-11-14T00:41:27.064Z,40.87
2022-11-14T00:44:12.524Z,40.00
2022-11-14T00:46:57.927Z,39.67
2022-11-14T00:49:43.229Z,40.77
2022-11-14T00:52:28.631Z,41.10
2022-11-14T00:55:13.972Z,39.80
2022-11-14T00:57:59.256Z,40.03
2022-11-14T01:00:44.700Z,39.83
2022-11-14T01:03:29.984Z,41.10
2022-11-14T01:06:16.508Z,38.80
2022-11-14T01:09:02.280Z,37.90
2022-11-14T01:11:47.484Z,36.93
2022-11-14T01:14:32.734Z,38.67
2022-11-14T01:17:17.852Z,39.17
2022-11-14T01:20:03.941Z,39.93
2022-11-14T01:22:48.883Z,38.10
2022-11-14T01:25:35.659Z,37.50
2022-11-14T01:28:21.149Z,40.60
2022-11-14T01:31:19.507Z,43.07
2022-11-14T01:34:04.664Z,41.67
2022-11-14T01:36:50.133Z,38.13
2022-11-14T01:39:35.501Z,39.23
2022-11-14T01:42:25.970Z,43.13
2022-11-14T01:45:49.547Z,40.33
2022-11-14T01:48:43.476Z,42.83
2022-11-14T01:51:39.371Z,42.07
2022-11-14T01:54:32.063Z,44.87
2022-11-14T01:57:21.265Z,46.00
2022-11-14T02:00:09.335Z,43.50
2022-11-14T02:02:54.840Z,47.43
2022-11-14T02:05:41.123Z,45.17
2022-11-14T02:08:26.561Z,43.60
2022-11-14T02:11:12.683Z,46.10
2022-11-14T02:13:59.127Z,45.77
2022-11-14T02:16:55.665Z,45.07
2022-11-14T02:19:54.391Z,46.17
2022-11-14T02:22:40.679Z,45.93
2022-11-14T02:25:26.239Z,45.33
2022-11-14T02:28:11.458Z,44.57
2022-11-14T02:30:57.708Z,45.80
2022-11-14T02:33:43.213Z,40.97
2022-11-14T02:36:28.367Z,39.97
2022-11-14T02:39:13.698Z,42.10
2022-11-14T02:41:59.072Z,41.83
2022-11-14T02:44:44.107Z,41.93
2022-11-14T02:47:29.430Z,39.93
2022-11-14T02:50:14.953Z,40.87
2022-11-14T02:53:00.099Z,40.80
2022-11-14T02:55:45.525Z,39.10
2022-11-14T02:58:31.109Z,38.33
2022-11-14T03:01:21.497Z,40.07
2022-11-14T03:04:06.903Z,35.97
2022-11-14T03:06:52.302Z,38.80
2022-11-14T03:09:37.554Z,37.37
2022-11-14T03:12:22.898Z,40.03
2022-11-14T03:15:09.135Z,38.17
2022-11-14T03:17:54.427Z,37.93
2022-11-14T03:20:39.729Z,38.17
2022-11-14T03:23:24.811Z,38.13
2022-11-14T03:26:10.954Z,36.27
2022-11-14T03:28:56.096Z,35.60
2022-11-14T03:31:41.404Z,38.10
2022-11-14T03:34:26.855Z,39.03
2022-11-14T03:37:12.265Z,38.27
2022-11-14T03:39:57.576Z,38.97
2022-11-14T03:42:42.924Z,38.57
2022-11-14T03:45:28.169Z,37.87
2022-11-14T03:48:14.044Z,36.13
2022-11-14T03:50:59.256Z,35.60
2022-11-14T03:53:44.656Z,37.00
2022-11-14T03:56:30.053Z,35.03
2022-11-14T03:59:16.459Z,37.63
2022-11-14T04:02:01.568Z,39.53
2022-11-14T04:04:46.892Z,38.90
2022-11-14T04:07:32.212Z,38.93
2022-11-14T04:10:18.124Z,38.33
2022-11-14T04:13:04.612Z,39.50
2022-11-14T04:15:57.553Z,36.50
2022-11-14T04:18:42.753Z,36.90
2022-11-14T04:21:28.308Z,37.83
2022-11-14T04:24:13.592Z,38.07
2022-11-14T04:26:59.072Z,39.57
2022-11-14T04:29:44.436Z,38.83
2022-11-14T04:32:29.677Z,41.73
2022-11-14T04:35:15.076Z,43.47
2022-11-14T04:38:00.615Z,40.37
2022-11-14T04:40:50.977Z,40.50
2022-11-14T04:43:36.421Z,41.57
2022-11-14T04:46:21.655Z,39.63
2022-11-14T04:49:06.805Z,39.87
2022-11-14T04:51:52.161Z,43.03
2022-11-14T04:54:37.596Z,39.53
2022-11-14T04:57:22.905Z,41.90
2022-11-14T05:00:09.287Z,39.27
2022-11-14T05:02:54.784Z,40.60
2022-11-14T05:05:42.130Z,37.03
2022-11-14T05:08:27.954Z,38.87
2022-11-14T05:11:17.791Z,38.13
2022-11-14T05:14:03.151Z,37.47
2022-11-14T05:16:48.408Z,35.50
2022-11-14T05:19:33.752Z,34.87
2022-11-14T05:22:19.199Z,35.80
2022-11-14T05:25:05.533Z,36.77
2022-11-14T05:27:50.826Z,33.17
2022-11-14T05:30:36.160Z,34.17
2022-11-14T05:33:21.463Z,36.43
2022-11-14T05:36:09.597Z,38.93
2022-11-14T05:38:55.295Z,39.83
2022-11-14T05:41:40.364Z,37.47
2022-11-14T05:44:25.933Z,35.80
2022-11-14T05:47:11.335Z,31.70
2022-11-14T05:49:56.536Z,28.40
2022-11-14T05:52:41.814Z,30.63
2022-11-14T05:55:27.044Z,28.13
2022-11-14T05:58:12.304Z,27.67
2022-11-14T06:01:04.709Z,27.83
2022-11-14T06:03:50.057Z,25.03
2022-11-14T06:06:35.312Z,28.97
2022-11-14T06:09:20.725Z,26.10
2022-11-14T06:12:07.824Z,24.00
2022-11-14T06:14:53.020Z,26.67
2022-11-14T06:17:38.367Z,26.77
2022-11-14T06:20:23.755Z,43.40
2022-11-14T06:23:09.129Z,45.17
2022-11-14T06:26:03.927Z,27.83
2022-11-14T06:28:50.648Z,28.37
2022-11-14T06:31:35.689Z,30.40
2022-11-14T06:34:20.986Z,29.23
2022-11-14T06:37:06.301Z,29.90
2022-11-14T06:39:51.610Z,30.73
2022-11-14T06:42:36.881Z,32.13
2022-11-14T06:45:22.388Z,32.00
2022-11-14T06:48:07.797Z,30.27
2022-11-14T06:50:54.269Z,32.53
2022-11-14T06:53:39.959Z,40.60
2022-11-14T06:56:25.217Z,44.43
2022-11-14T06:59:10.834Z,46.50
2022-11-14T07:01:55.880Z,47.67
2022-11-14T07:04:41.007Z,50.07
2022-11-14T07:07:28.625Z,47.93
2022-11-14T07:10:13.969Z,48.33
2022-11-14T07:12:59.154Z,47.53
2022-11-14T07:15:54.252Z,49.40
2022-11-14T07:18:39.579Z,45.03
2022-11-14T07:21:26.702Z,43.43
2022-11-14T07:24:12.174Z,44.43
2022-11-14T07:26:57.297Z,44.10
2022-11-14T07:29:42.631Z,37.83
2022-11-14T07:32:27.933Z,40.57
2022-11-14T07:35:13.240Z,36.47
2022-11-14T07:38:05.120Z,38.53
2022-11-14T07:40:59.924Z,36.13
2022-11-14T07:43:45.818Z,36.30
2022-11-14T07:46:30.994Z,33.30
2022-11-14T07:49:16.464Z,32.00
2022-11-14T07:52:01.759Z,32.07
2022-11-14T07:54:47.212Z,33.83
2022-11-14T07:57:35.546Z,28.57
2022-11-14T08:00:25.023Z,28.60
2022-11-14T08:03:10.913Z,28.13
2022-11-14T08:06:12.349Z,27.37
2022-11-14T08:08:57.423Z,26.57
2022-11-14T08:11:48.592Z,28.17
2022-11-14T08:14:34.371Z,26.07
2022-11-14T08:17:21.058Z,25.77
2022-11-14T08:20:07.983Z,26.10
2022-11-14T08:23:07.226Z,26.40
2022-11-14T08:25:52.712Z,26.00
2022-11-14T08:28:37.920Z,26.87
2022-11-14T08:31:23.184Z,24.30
2022-11-14T08:34:09.804Z,25.73
2022-11-14T08:36:57.183Z,25.67
2022-11-14T08:39:42.526Z,23.73
2022-11-14T08:42:28.006Z,23.63
2022-11-14T08:45:12.993Z,23.30
2022-11-14T08:47:58.241Z,24.57
2022-11-14T08:50:43.534Z,22.00
2022-11-14T08:53:28.810Z,22.53
2022-11-14T08:56:14.182Z,21.23
2022-11-14T08:59:03.131Z,23.97
2022-11-14T09:01:48.596Z,21.07
2022-11-14T09:04:33.645Z,22.33
2022-11-14T09:07:19.187Z,21.90
2022-11-14T09:10:04.990Z,21.37
2022-11-14T09:12:58.623Z,22.07
2022-11-14T09:15:43.729Z,21.03
2022-11-14T09:18:30.900Z,21.83
2022-11-14T09:21:16.815Z,20.27
2022-11-14T09:24:02.252Z,21.17
2022-11-14T09:26:54.927Z,22.17
2022-11-14T09:29:42.323Z,20.63
2022-11-14T09:32:27.795Z,19.83
2022-11-14T09:35:13.146Z,20.23
2022-11-14T09:38:10.266Z,20.80
2022-11-14T09:41:17.616Z,21.53
2022-11-14T09:44:19.150Z,20.10
2022-11-14T09:47:17.966Z,21.57
2022-11-14T09:50:13.340Z,22.10
2022-11-14T09:53:04.507Z,22.03
2022-11-14T09:55:50.143Z,20.47
2022-11-14T09:58:35.590Z,19.77
2022-11-14T10:02:01.926Z,19.40
2022-11-14T10:05:13.894Z,20.80
2022-11-14T10:07:59.861Z,20.80
2022-11-14T10:10:54.866Z,20.43
2022-11-14T10:14:12.602Z,22.90
2022-11-14T10:17:10.795Z,19.93
2022-11-14T10:20:14.291Z,19.90
2022-11-14T10:23:10.134Z,21.93
2022-11-14T10:26:15.918Z,19.73
2022-11-14T10:29:18.253Z,21.13
2022-11-14T10:32:24.725Z,20.10
2022-11-14T10:35:23.596Z,21.37
2022-11-14T10:38:21.681Z,20.93
2022-11-14T10:41:19.277Z,20.83
2022-11-14T10:44:18.585Z,22.57
2022-11-14T10:47:13.279Z,19.17
2022-11-14T10:50:13.003Z,22.57
2022-11-14T10:53:01.949Z,20.10
2022-11-14T10:56:03.517Z,20.93
2022-11-14T10:58:50.508Z,20.50
2022-11-14T11:01:41.697Z,21.33
2022-11-14T11:04:58.329Z,21.13
2022-11-14T11:11:34.137Z,22.60
2022-11-14T11:14:20.240Z,24.47
2022-11-14T11:17:11.955Z,22.93
2022-11-14T11:20:26.864Z,23.13
2022-11-14T11:23:12.099Z,27.13
2022-11-14T11:26:05.884Z,25.90
2022-11-14T11:29:03.294Z,23.77
2022-11-14T11:31:54.432Z,26.00
2022-11-14T11:35:00.362Z,26.17
2022-11-14T11:37:50.229Z,28.60
2022-11-14T11:40:36.073Z,25.80
2022-11-14T11:43:46.147Z,24.93
2022-11-14T11:46:37.336Z,26.37
2022-11-14T11:49:52.024Z,26.03
2022-11-14T11:53:16.866Z,25.33
2022-11-14T11:56:19.668Z,27.43
2022-11-14T11:59:22.210Z,25.17
2022-11-14T12:02:21.417Z,28.73
2022-11-14T12:05:07.803Z,25.80
2022-11-14T12:07:58.885Z,27.40
2022-11-14T12:10:46.248Z,26.97
2022-11-14T12:14:07.172Z,26.57
2022-11-14T12:16:59.188Z,30.83
2022-11-14T12:19:53.977Z,31.13
2022-11-14T12:23:01.340Z,31.67
2022-11-14T12:25:56.131Z,26.00
2022-11-14T12:28:59.200Z,28.80
2022-11-14T12:31:45.549Z,28.50
2022-11-14T12:34:40.265Z,29.23
2022-11-14T12:37:34.026Z,29.90
2022-11-14T12:40:45.989Z,29.13
2022-11-14T12:44:01.423Z,28.40
2022-11-14T12:47:05.539Z,30.70
2022-11-14T12:50:01.230Z,29.27
2022-11-14T12:52:50.435Z,28.90
2022-11-14T12:55:36.068Z,30.70
2022-11-14T12:58:59.369Z,30.87
2022-11-14T13:01:49.920Z,32.83
2022-11-14T13:05:23.376Z,32.30
2022-11-14T13:08:17.103Z,32.97
2022-11-14T13:11:53.425Z,32.23
2022-11-14T13:15:09.802Z,34.07
2022-11-14T13:18:23.740Z,34.30
2022-11-14T13:21:45.681Z,35.33
2022-11-14T13:24:59.600Z,34.67
2022-11-14T13:31:17.035Z,39.03
2022-11-14T13:34:30.919Z,35.13
2022-11-14T13:37:38.550Z,37.67
2022-11-14T13:40:49.043Z,39.23
2022-11-14T13:43:59.896Z,41.50
2022-11-14T13:47:02.531Z,39.63
2022-11-14T13:49:57.139Z,38.90
2022-11-14T13:52:45.174Z,37.87
2022-11-14T13:55:36.608Z,41.03
2022-11-14T13:58:22.231Z,39.43
2022-11-14T14:01:33.382Z,38.70
2022-11-14T14:05:21.202Z,39.13
2022-11-14T14:08:37.883Z,36.73
2022-11-14T14:12:06.273Z,40.10
2022-11-14T14:15:16.334Z,38.80
2022-11-14T14:18:14.786Z,40.50
2022-11-14T14:21:45.908Z,41.47
2022-11-14T14:25:07.066Z,40.57
2022-11-14T14:28:26.175Z,44.73
2022-11-14T14:31:16.433Z,56.23
2022-11-14T14:34:01.597Z,41.60
2022-11-14T14:36:53.004Z,43.10
2022-11-14T14:39:38.455Z,40.70
2022-11-14T14:42:24.540Z,45.03
2022-11-14T14:45:18.701Z,42.33
2022-11-14T14:48:21.279Z,41.80
2022-11-14T14:51:07.471Z,45.67
2022-11-14T14:53:53.902Z,43.07
2022-11-14T14:56:38.945Z,42.83
2022-11-14T14:59:25.095Z,44.53
2022-11-14T15:02:16.544Z,41.43
2022-11-14T15:05:01.905Z,44.53
2022-11-14T15:07:49.450Z,42.97
2022-11-14T15:10:34.958Z,45.77
2022-11-14T15:13:20.215Z,47.17
2022-11-14T15:16:05.991Z,46.60
2022-11-14T15:18:53.074Z,48.30
2022-11-14T15:21:38.105Z,47.87
2022-11-14T15:24:23.817Z,45.73
2022-11-14T15:27:19.887Z,48.70
2022-11-14T15:30:07.539Z,49.63
2022-11-14T15:32:55.129Z,52.07
2022-11-14T15:35:41.046Z,60.40
2022-11-14T15:38:43.575Z,58.20
2022-11-14T15:41:31.053Z,52.47
2022-11-14T15:44:33.085Z,74.57
2022-11-14T15:47:28.464Z,49.53
2022-11-14T15:50:13.532Z,53.13
2022-11-14T15:53:00.295Z,48.00
2022-11-14T15:55:45.552Z,52.63
2022-11-14T15:58:30.669Z,47.00
2022-11-14T16:01:18.469Z,47.33
2022-11-14T16:04:04.104Z,50.30
2022-11-14T16:06:50.215Z,55.33
2022-11-14T16:09:35.348Z,49.97
2022-11-14T16:12:20.573Z,46.00
2022-11-14T16:15:06.125Z,45.30
2022-11-14T16:17:51.224Z,43.13
2022-11-14T16:20:39.512Z,44.17
2022-11-14T16:23:24.496Z,43.97
2022-11-14T16:26:09.740Z,42.77
2022-11-14T16:28:56.455Z,44.47
2022-11-14T16:31:42.020Z,42.00
2022-11-14T16:34:27.343Z,45.23
2022-11-14T16:37:14.415Z,46.13
2022-11-14T16:39:59.321Z,45.50
2022-11-14T16:42:44.478Z,45.70
2022-11-14T16:45:29.944Z,44.17
2022-11-14T16:48:15.925Z,44.20
2022-11-14T16:51:14.533Z,45.60
2022-11-14T16:54:05.576Z,43.83
2022-11-14T16:56:50.812Z,42.10
2022-11-14T16:59:36.159Z,45.63
2022-11-14T17:02:21.703Z,42.47
2022-11-14T17:05:07.474Z,45.40
2022-11-14T17:07:52.643Z,45.20
2022-11-14T17:10:45.289Z,46.40
2022-11-14T17:13:31.878Z,49.80
2022-11-14T17:16:18.055Z,54.20
2022-11-14T17:19:03.305Z,47.10
2022-11-14T17:21:48.349Z,53.80
2022-11-14T17:24:33.833Z,44.93
2022-11-14T17:27:18.966Z,48.57
2022-11-14T17:30:04.713Z,43.53
2022-11-14T17:32:55.205Z,50.50
2022-11-14T17:35:41.461Z,49.93
2022-11-14T17:38:26.706Z,50.20
2022-11-14T17:41:12.164Z,46.73
2022-11-14T17:44:01.872Z,42.70
2022-11-14T17:46:47.393Z,45.27
2022-11-14T17:49:32.508Z,45.90
2022-11-14T17:52:17.676Z,44.23
2022-11-14T17:55:02.777Z,45.00
2022-11-14T17:57:47.889Z,48.53
2022-11-14T18:00:33.300Z,45.03
2022-11-14T18:03:18.544Z,45.80
2022-11-14T18:06:21.002Z,46.03
2022-11-14T18:09:16.625Z,46.17
2022-11-14T18:12:04.933Z,42.47
2022-11-14T18:25:08.071Z,46.93
2022-11-14T18:27:54.514Z,43.17
2022-11-14T18:30:55.133Z,41.23
2022-11-14T18:33:47.224Z,35.00
2022-11-14T18:49:30.214Z,38.47
2022-11-14T18:55:54.525Z,41.43
2022-11-14T18:58:43.812Z,40.63
2022-11-14T19:01:33.840Z,38.73
2022-11-14T19:04:24.012Z,41.37
2022-11-14T19:07:10.388Z,39.40
2022-11-14T19:09:56.348Z,39.77
2022-11-14T19:12:43.086Z,39.20
2022-11-14T19:18:37.173Z,40.10
2022-11-14T19:21:25.336Z,41.67
